sensor_id;sensor_type;location;lat;lon;timestamp;P1;durP1;ratioP1;P2;durP2;ratioP2
25175;SDS011;13135;55.166;61.286;2023-02-01T00:02:34;13.73;;;7.63;;
25175;SDS011;13135;55.166;61.286;2023-02-01T00:05:21;18.43;;;8.63;;
25175;SDS011;13135;55.166;61.286;2023-02-01T00:08:05;21.60;;;9.00;;
25175;SDS011;13135;55.166;61.286;2023-02-01T00:10:57;29.30;;;13.20;;
25175;SDS011;13135;55.166;61.286;2023-02-01T00:13:41;16.57;;;8.33;;
25175;SDS011;13135;55.166;61.286;2023-02-01T00:16:24;18.87;;;8.63;;
25175;SDS011;13135;55.166;61.286;2023-02-01T00:19:10;14.67;;;8.30;;
25175;SDS011;13135;55.166;61.286;2023-02-01T00:21:54;16.07;;;7.83;;
25175;SDS011;13135;55.166;61.286;2023-02-01T00:24:35;13.77;;;7.57;;
25175;SDS011;13135;55.166;61.286;2023-02-01T00:27:20;35.00;;;16.70;;
25175;SDS011;13135;55.166;61.286;2023-02-01T00:30:05;17.33;;;7.97;;
25175;SDS011;13135;55.166;61.286;2023-02-01T00:32:54;14.90;;;7.70;;
25175;SDS011;13135;55.166;61.286;2023-02-01T00:35:38;23.43;;;11.57;;
25175;SDS011;13135;55.166;61.286;2023-02-01T00:38:25;13.40;;;7.50;;
25175;SDS011;13135;55.166;61.286;2023-02-01T00:41:11;25.70;;;11.53;;
25175;SDS011;13135;55.166;61.286;2023-02-01T00:43:58;14.47;;;8.13;;
25175;SDS011;13135;55.166;61.286;2023-02-01T00:46:43;15.27;;;6.87;;
25175;SDS011;13135;55.166;61.286;2023-02-01T00:49:27;16.40;;;7.43;;
25175;SDS011;13135;55.166;61.286;2023-02-01T00:52:11;14.73;;;8.00;;
25175;SDS011;13135;55.166;61.286;2023-02-01T00:54:55;15.17;;;7.93;;
25175;SDS011;13135;55.166;61.286;2023-02-01T00:57:37;16.27;;;7.60;;
25175;SDS011;13135;55.166;61.286;2023-02-01T01:00:23;14.90;;;7.23;;
25175;SDS011;13135;55.166;61.286;2023-02-01T01:03:07;14.30;;;7.03;;
25175;SDS011;13135;55.166;61.286;2023-02-01T01:05:56;13.77;;;6.77;;
25175;SDS011;13135;55.166;61.286;2023-02-01T01:08:36;15.53;;;7.13;;
25175;SDS011;13135;55.166;61.286;2023-02-01T01:11:23;15.93;;;7.00;;
25175;SDS011;13135;55.166;61.286;2023-02-01T01:14:07;15.40;;;7.87;;
25175;SDS011;13135;55.166;61.286;2023-02-01T01:16:52;14.83;;;7.27;;
25175;SDS011;13135;55.166;61.286;2023-02-01T01:19:37;16.20;;;8.33;;
25175;SDS011;13135;55.166;61.286;2023-02-01T01:22:24;13.60;;;7.10;;
25175;SDS011;13135;55.166;61.286;2023-02-01T01:25:08;14.13;;;7.40;;
25175;SDS011;13135;55.166;61.286;2023-02-01T01:27:50;18.03;;;7.57;;
25175;SDS011;13135;55.166;61.286;2023-02-01T01:30:34;16.50;;;7.73;;
25175;SDS011;13135;55.166;61.286;2023-02-01T01:33:19;13.97;;;7.30;;
25175;SDS011;13135;55.166;61.286;2023-02-01T01:36:05;13.47;;;7.70;;
25175;SDS011;13135;55.166;61.286;2023-02-01T01:38:49;15.60;;;7.63;;
25175;SDS011;13135;55.166;61.286;2023-02-01T01:41:33;15.17;;;7.53;;
25175;SDS011;13135;55.166;61.286;2023-02-01T01:47:15;14.00;;;7.50;;
25175;SDS011;13135;55.166;61.286;2023-02-01T01:50:01;16.43;;;7.33;;
25175;SDS011;13135;55.166;61.286;2023-02-01T01:52:46;18.37;;;8.17;;
25175;SDS011;13135;55.166;61.286;2023-02-01T01:55:32;13.73;;;7.33;;
25175;SDS011;13135;55.166;61.286;2023-02-01T01:58:17;17.73;;;7.67;;
25175;SDS011;13135;55.166;61.286;2023-02-01T02:01:02;14.70;;;7.77;;
25175;SDS011;13135;55.166;61.286;2023-02-01T02:03:47;16.53;;;7.97;;
25175;SDS011;13135;55.166;61.286;2023-02-01T02:06:38;15.17;;;7.57;;
25175;SDS011;13135;55.166;61.286;2023-02-01T02:09:25;15.70;;;7.40;;
25175;SDS011;13135;55.166;61.286;2023-02-01T02:12:09;19.57;;;8.67;;
25175;SDS011;13135;55.166;61.286;2023-02-01T02:14:52;16.87;;;8.00;;
25175;SDS011;13135;55.166;61.286;2023-02-01T02:17:42;17.43;;;7.90;;
25175;SDS011;13135;55.166;61.286;2023-02-01T02:23:35;15.13;;;8.23;;
25175;SDS011;13135;55.166;61.286;2023-02-01T02:26:23;15.80;;;7.73;;
25175;SDS011;13135;55.166;61.286;2023-02-01T02:35:13;41.03;;;19.17;;
25175;SDS011;13135;55.166;61.286;2023-02-01T02:38:02;95.40;;;38.90;;
25175;SDS011;13135;55.166;61.286;2023-02-01T02:41:01;46.07;;;23.47;;
25175;SDS011;13135;55.166;61.286;2023-02-01T02:43:45;20.17;;;10.30;;
25175;SDS011;13135;55.166;61.286;2023-02-01T02:46:30;18.53;;;7.83;;
25175;SDS011;13135;55.166;61.286;2023-02-01T02:49:19;18.93;;;9.60;;
25175;SDS011;13135;55.166;61.286;2023-02-01T02:52:07;15.70;;;8.13;;
25175;SDS011;13135;55.166;61.286;2023-02-01T02:54:50;18.83;;;8.80;;
25175;SDS011;13135;55.166;61.286;2023-02-01T02:57:36;33.27;;;15.87;;
25175;SDS011;13135;55.166;61.286;2023-02-01T03:00:22;17.10;;;8.53;;
25175;SDS011;13135;55.166;61.286;2023-02-01T03:03:05;19.40;;;9.27;;
25175;SDS011;13135;55.166;61.286;2023-02-01T03:05:50;18.03;;;8.67;;
25175;SDS011;13135;55.166;61.286;2023-02-01T03:08:34;17.40;;;8.97;;
25175;SDS011;13135;55.166;61.286;2023-02-01T03:11:19;14.70;;;7.83;;
25175;SDS011;13135;55.166;61.286;2023-02-01T03:14:03;15.97;;;8.10;;
25175;SDS011;13135;55.166;61.286;2023-02-01T03:16:48;19.80;;;9.00;;
25175;SDS011;13135;55.166;61.286;2023-02-01T03:19:34;19.17;;;9.13;;
25175;SDS011;13135;55.166;61.286;2023-02-01T03:22:17;18.77;;;8.37;;
25175;SDS011;13135;55.166;61.286;2023-02-01T03:25:03;19.20;;;9.40;;
25175;SDS011;13135;55.166;61.286;2023-02-01T03:27:49;21.70;;;9.43;;
25175;SDS011;13135;55.166;61.286;2023-02-01T03:30:34;15.43;;;8.20;;
25175;SDS011;13135;55.166;61.286;2023-02-01T03:33:20;16.37;;;8.43;;
25175;SDS011;13135;55.166;61.286;2023-02-01T03:36:09;22.10;;;9.37;;
25175;SDS011;13135;55.166;61.286;2023-02-01T03:41:48;18.77;;;8.47;;
25175;SDS011;13135;55.166;61.286;2023-02-01T03:44:37;20.73;;;9.07;;
25175;SDS011;13135;55.166;61.286;2023-02-01T03:47:27;17.37;;;8.60;;
25175;SDS011;13135;55.166;61.286;2023-02-01T03:50:14;18.47;;;8.07;;
25175;SDS011;13135;55.166;61.286;2023-02-01T03:52:59;15.97;;;8.13;;
25175;SDS011;13135;55.166;61.286;2023-02-01T03:55:47;19.20;;;7.90;;
25175;SDS011;13135;55.166;61.286;2023-02-01T03:58:31;18.30;;;9.20;;
25175;SDS011;13135;55.166;61.286;2023-02-01T04:01:12;19.57;;;8.63;;
25175;SDS011;13135;55.166;61.286;2023-02-01T04:03:56;18.10;;;9.00;;
25175;SDS011;13135;55.166;61.286;2023-02-01T04:06:40;13.90;;;7.77;;
25175;SDS011;13135;55.166;61.286;2023-02-01T04:09:25;14.90;;;7.53;;
25175;SDS011;13135;55.166;61.286;2023-02-01T04:12:09;19.87;;;7.77;;
25175;SDS011;13135;55.166;61.286;2023-02-01T04:14:53;15.00;;;7.53;;
25175;SDS011;13135;55.166;61.286;2023-02-01T04:17:37;15.53;;;7.40;;
25175;SDS011;13135;55.166;61.286;2023-02-01T04:20:21;15.33;;;7.37;;
25175;SDS011;13135;55.166;61.286;2023-02-01T04:23:06;13.80;;;6.43;;
25175;SDS011;13135;55.166;61.286;2023-02-01T04:25:50;16.10;;;7.23;;
25175;SDS011;13135;55.166;61.286;2023-02-01T04:28:35;14.67;;;6.67;;
25175;SDS011;13135;55.166;61.286;2023-02-01T04:31:19;15.00;;;7.80;;
25175;SDS011;13135;55.166;61.286;2023-02-01T04:34:06;14.97;;;7.70;;
25175;SDS011;13135;55.166;61.286;2023-02-01T04:36:50;17.47;;;7.43;;
25175;SDS011;13135;55.166;61.286;2023-02-01T04:39:34;16.73;;;7.70;;
25175;SDS011;13135;55.166;61.286;2023-02-01T04:42:14;20.90;;;7.20;;
25175;SDS011;13135;55.166;61.286;2023-02-01T04:45:00;18.23;;;8.30;;
25175;SDS011;13135;55.166;61.286;2023-02-01T04:47:45;16.30;;;7.67;;
25175;SDS011;13135;55.166;61.286;2023-02-01T04:50:29;14.00;;;7.60;;
25175;SDS011;13135;55.166;61.286;2023-02-01T04:53:13;14.57;;;7.60;;
25175;SDS011;13135;55.166;61.286;2023-02-01T04:55:59;16.53;;;7.90;;
25175;SDS011;13135;55.166;61.286;2023-02-01T04:58:46;19.10;;;8.07;;
25175;SDS011;13135;55.166;61.286;2023-02-01T05:01:32;17.43;;;8.17;;
25175;SDS011;13135;55.166;61.286;2023-02-01T05:04:14;15.17;;;7.40;;
25175;SDS011;13135;55.166;61.286;2023-02-01T05:07:00;12.50;;;6.27;;
25175;SDS011;13135;55.166;61.286;2023-02-01T05:09:47;15.43;;;7.13;;
25175;SDS011;13135;55.166;61.286;2023-02-01T05:12:32;18.93;;;7.27;;
25175;SDS011;13135;55.166;61.286;2023-02-01T05:15:17;14.30;;;7.00;;
25175;SDS011;13135;55.166;61.286;2023-02-01T05:17:59;15.47;;;7.47;;
25175;SDS011;13135;55.166;61.286;2023-02-01T05:20:40;15.30;;;7.50;;
25175;SDS011;13135;55.166;61.286;2023-02-01T05:23:22;17.67;;;8.90;;
25175;SDS011;13135;55.166;61.286;2023-02-01T05:26:09;19.13;;;7.90;;
25175;SDS011;13135;55.166;61.286;2023-02-01T05:28:54;14.20;;;6.63;;
25175;SDS011;13135;55.166;61.286;2023-02-01T05:31:40;16.63;;;7.83;;
25175;SDS011;13135;55.166;61.286;2023-02-01T05:34:25;16.90;;;8.40;;
25175;SDS011;13135;55.166;61.286;2023-02-01T05:37:10;23.10;;;9.53;;
25175;SDS011;13135;55.166;61.286;2023-02-01T05:39:55;15.00;;;8.10;;
25175;SDS011;13135;55.166;61.286;2023-02-01T05:42:40;16.33;;;7.80;;
25175;SDS011;13135;55.166;61.286;2023-02-01T05:45:25;12.67;;;6.63;;
25175;SDS011;13135;55.166;61.286;2023-02-01T05:48:11;17.37;;;7.80;;
25175;SDS011;13135;55.166;61.286;2023-02-01T05:54:16;15.97;;;7.20;;
25175;SDS011;13135;55.166;61.286;2023-02-01T05:57:00;19.27;;;8.07;;
25175;SDS011;13135;55.166;61.286;2023-02-01T05:59:45;18.43;;;8.00;;
25175;SDS011;13135;55.166;61.286;2023-02-01T06:02:31;18.57;;;8.87;;
25175;SDS011;13135;55.166;61.286;2023-02-01T06:05:15;22.97;;;10.17;;
25175;SDS011;13135;55.166;61.286;2023-02-01T06:08:00;22.73;;;10.33;;
25175;SDS011;13135;55.166;61.286;2023-02-01T06:10:45;19.73;;;10.50;;
25175;SDS011;13135;55.166;61.286;2023-02-01T06:13:28;24.57;;;11.47;;
25175;SDS011;13135;55.166;61.286;2023-02-01T06:16:12;29.40;;;12.47;;
25175;SDS011;13135;55.166;61.286;2023-02-01T06:18:56;24.90;;;12.20;;
25175;SDS011;13135;55.166;61.286;2023-02-01T06:21:40;21.90;;;11.00;;
25175;SDS011;13135;55.166;61.286;2023-02-01T06:24:25;23.23;;;11.43;;
25175;SDS011;13135;55.166;61.286;2023-02-01T06:27:06;23.37;;;10.97;;
25175;SDS011;13135;55.166;61.286;2023-02-01T06:29:48;24.60;;;12.70;;
25175;SDS011;13135;55.166;61.286;2023-02-01T06:32:32;26.37;;;12.33;;
25175;SDS011;13135;55.166;61.286;2023-02-01T06:35:15;25.07;;;12.47;;
25175;SDS011;13135;55.166;61.286;2023-02-01T06:38:01;23.60;;;12.20;;
25175;SDS011;13135;55.166;61.286;2023-02-01T06:40:45;35.70;;;14.43;;
25175;SDS011;13135;55.166;61.286;2023-02-01T06:43:31;26.23;;;12.17;;
25175;SDS011;13135;55.166;61.286;2023-02-01T06:46:14;28.13;;;14.43;;
25175;SDS011;13135;55.166;61.286;2023-02-01T06:48:59;28.00;;;15.37;;
25175;SDS011;13135;55.166;61.286;2023-02-01T06:51:45;24.47;;;13.17;;
25175;SDS011;13135;55.166;61.286;2023-02-01T06:54:29;27.43;;;13.57;;
25175;SDS011;13135;55.166;61.286;2023-02-01T06:57:10;23.60;;;13.17;;
25175;SDS011;13135;55.166;61.286;2023-02-01T06:59:54;27.00;;;14.07;;
25175;SDS011;13135;55.166;61.286;2023-02-01T07:02:38;27.23;;;13.70;;
25175;SDS011;13135;55.166;61.286;2023-02-01T07:05:22;25.97;;;13.47;;
25175;SDS011;13135;55.166;61.286;2023-02-01T07:08:06;28.47;;;13.27;;
25175;SDS011;13135;55.166;61.286;2023-02-01T07:10:48;25.13;;;11.90;;
25175;SDS011;13135;55.166;61.286;2023-02-01T07:13:30;24.93;;;12.00;;
25175;SDS011;13135;55.166;61.286;2023-02-01T07:16:16;24.43;;;11.50;;
25175;SDS011;13135;55.166;61.286;2023-02-01T07:19:01;23.93;;;12.10;;
25175;SDS011;13135;55.166;61.286;2023-02-01T07:21:42;25.60;;;12.37;;
25175;SDS011;13135;55.166;61.286;2023-02-01T07:24:23;23.50;;;11.23;;
25175;SDS011;13135;55.166;61.286;2023-02-01T07:27:07;55.83;;;26.83;;
25175;SDS011;13135;55.166;61.286;2023-02-01T07:29:51;53.93;;;27.33;;
25175;SDS011;13135;55.166;61.286;2023-02-01T07:32:36;28.53;;;13.90;;
25175;SDS011;13135;55.166;61.286;2023-02-01T07:35:18;25.17;;;12.60;;
25175;SDS011;13135;55.166;61.286;2023-02-01T07:38:00;25.53;;;12.10;;
25175;SDS011;13135;55.166;61.286;2023-02-01T07:40:42;32.87;;;16.90;;
25175;SDS011;13135;55.166;61.286;2023-02-01T07:43:27;26.57;;;12.73;;
25175;SDS011;13135;55.166;61.286;2023-02-01T07:46:16;31.03;;;14.13;;
25175;SDS011;13135;55.166;61.286;2023-02-01T07:49:02;31.33;;;13.43;;
25175;SDS011;13135;55.166;61.286;2023-02-01T07:51:43;28.40;;;13.07;;
25175;SDS011;13135;55.166;61.286;2023-02-01T07:54:28;25.20;;;12.17;;
25175;SDS011;13135;55.166;61.286;2023-02-01T07:57:13;33.27;;;12.70;;
25175;SDS011;13135;55.166;61.286;2023-02-01T07:59:55;29.27;;;12.80;;
25175;SDS011;13135;55.166;61.286;2023-02-01T08:02:47;25.27;;;11.90;;
25175;SDS011;13135;55.166;61.286;2023-02-01T08:05:29;25.83;;;11.80;;
25175;SDS011;13135;55.166;61.286;2023-02-01T08:08:13;25.57;;;10.83;;
25175;SDS011;13135;55.166;61.286;2023-02-01T08:10:58;25.53;;;11.40;;
25175;SDS011;13135;55.166;61.286;2023-02-01T08:13:40;23.67;;;10.40;;
25175;SDS011;13135;55.166;61.286;2023-02-01T08:16:24;24.97;;;12.00;;
25175;SDS011;13135;55.166;61.286;2023-02-01T08:19:09;28.50;;;11.80;;
25175;SDS011;13135;55.166;61.286;2023-02-01T08:21:50;23.67;;;12.43;;
25175;SDS011;13135;55.166;61.286;2023-02-01T08:24:34;23.97;;;11.77;;
25175;SDS011;13135;55.166;61.286;2023-02-01T08:27:16;27.37;;;12.77;;
25175;SDS011;13135;55.166;61.286;2023-02-01T08:29:58;25.83;;;12.73;;
25175;SDS011;13135;55.166;61.286;2023-02-01T08:32:38;24.70;;;12.13;;
25175;SDS011;13135;55.166;61.286;2023-02-01T08:35:20;25.30;;;12.37;;
25175;SDS011;13135;55.166;61.286;2023-02-01T08:38:04;24.13;;;12.33;;
25175;SDS011;13135;55.166;61.286;2023-02-01T08:40:46;29.10;;;12.77;;
25175;SDS011;13135;55.166;61.286;2023-02-01T08:43:29;23.90;;;12.43;;
25175;SDS011;13135;55.166;61.286;2023-02-01T08:46:14;30.53;;;12.77;;
25175;SDS011;13135;55.166;61.286;2023-02-01T08:48:58;24.10;;;12.10;;
25175;SDS011;13135;55.166;61.286;2023-02-01T08:51:45;24.27;;;12.33;;
25175;SDS011;13135;55.166;61.286;2023-02-01T08:54:27;26.10;;;12.43;;
25175;SDS011;13135;55.166;61.286;2023-02-01T08:57:11;25.60;;;12.83;;
25175;SDS011;13135;55.166;61.286;2023-02-01T08:59:56;25.47;;;12.40;;
25175;SDS011;13135;55.166;61.286;2023-02-01T09:02:38;26.10;;;12.27;;
25175;SDS011;13135;55.166;61.286;2023-02-01T09:05:23;28.50;;;13.77;;
25175;SDS011;13135;55.166;61.286;2023-02-01T09:08:05;30.57;;;13.20;;
25175;SDS011;13135;55.166;61.286;2023-02-01T09:10:47;25.73;;;13.63;;
25175;SDS011;13135;55.166;61.286;2023-02-01T09:13:32;25.53;;;13.00;;
25175;SDS011;13135;55.166;61.286;2023-02-01T09:16:17;31.20;;;12.97;;
25175;SDS011;13135;55.166;61.286;2023-02-01T09:19:01;38.80;;;13.37;;
25175;SDS011;13135;55.166;61.286;2023-02-01T09:21:42;30.07;;;14.03;;
25175;SDS011;13135;55.166;61.286;2023-02-01T09:24:27;35.43;;;13.63;;
25175;SDS011;13135;55.166;61.286;2023-02-01T09:27:12;29.00;;;14.57;;
25175;SDS011;13135;55.166;61.286;2023-02-01T09:29:57;26.37;;;13.03;;
25175;SDS011;13135;55.166;61.286;2023-02-01T09:32:44;31.57;;;14.20;;
25175;SDS011;13135;55.166;61.286;2023-02-01T09:35:29;27.00;;;14.07;;
25175;SDS011;13135;55.166;61.286;2023-02-01T09:38:13;23.70;;;12.80;;
25175;SDS011;13135;55.166;61.286;2023-02-01T09:40:58;21.63;;;12.10;;
25175;SDS011;13135;55.166;61.286;2023-02-01T09:46:49;21.57;;;10.90;;
25175;SDS011;13135;55.166;61.286;2023-02-01T09:49:32;21.77;;;11.00;;
25175;SDS011;13135;55.166;61.286;2023-02-01T09:52:16;20.33;;;10.27;;
25175;SDS011;13135;55.166;61.286;2023-02-01T09:55:00;23.10;;;11.10;;
25175;SDS011;13135;55.166;61.286;2023-02-01T09:57:46;24.50;;;11.40;;
25175;SDS011;13135;55.166;61.286;2023-02-01T10:00:35;22.17;;;11.97;;
25175;SDS011;13135;55.166;61.286;2023-02-01T10:03:19;23.20;;;10.63;;
25175;SDS011;13135;55.166;61.286;2023-02-01T10:06:09;22.30;;;11.40;;
25175;SDS011;13135;55.166;61.286;2023-02-01T10:08:54;22.63;;;10.23;;
25175;SDS011;13135;55.166;61.286;2023-02-01T10:11:56;25.93;;;12.60;;
25175;SDS011;13135;55.166;61.286;2023-02-01T10:14:46;22.70;;;11.37;;
25175;SDS011;13135;55.166;61.286;2023-02-01T10:17:48;27.07;;;13.67;;
25175;SDS011;13135;55.166;61.286;2023-02-01T10:20:44;31.00;;;11.50;;
25175;SDS011;13135;55.166;61.286;2023-02-01T10:23:47;27.50;;;10.93;;
25175;SDS011;13135;55.166;61.286;2023-02-01T10:26:32;26.50;;;11.93;;
25175;SDS011;13135;55.166;61.286;2023-02-01T10:29:19;22.63;;;11.83;;
25175;SDS011;13135;55.166;61.286;2023-02-01T10:32:01;20.33;;;10.97;;
25175;SDS011;13135;55.166;61.286;2023-02-01T10:34:44;28.27;;;12.83;;
25175;SDS011;13135;55.166;61.286;2023-02-01T10:37:28;24.10;;;12.67;;
25175;SDS011;13135;55.166;61.286;2023-02-01T10:40:15;29.33;;;13.53;;
25175;SDS011;13135;55.166;61.286;2023-02-01T10:43:00;29.80;;;12.63;;
25175;SDS011;13135;55.166;61.286;2023-02-01T10:45:40;23.83;;;12.77;;
25175;SDS011;13135;55.166;61.286;2023-02-01T10:48:25;28.37;;;14.00;;
25175;SDS011;13135;55.166;61.286;2023-02-01T10:51:21;24.97;;;13.20;;
25175;SDS011;13135;55.166;61.286;2023-02-01T10:56:58;28.37;;;15.00;;
25175;SDS011;13135;55.166;61.286;2023-02-01T10:59:42;22.93;;;13.43;;
25175;SDS011;13135;55.166;61.286;2023-02-01T11:02:29;28.93;;;13.50;;
25175;SDS011;13135;55.166;61.286;2023-02-01T11:05:20;31.87;;;14.83;;
25175;SDS011;13135;55.166;61.286;2023-02-01T11:08:05;29.97;;;14.07;;
25175;SDS011;13135;55.166;61.286;2023-02-01T11:10:56;27.53;;;13.77;;
25175;SDS011;13135;55.166;61.286;2023-02-01T11:13:43;27.27;;;13.67;;
25175;SDS011;13135;55.166;61.286;2023-02-01T11:16:31;34.57;;;16.63;;
25175;SDS011;13135;55.166;61.286;2023-02-01T11:19:17;29.60;;;15.10;;
25175;SDS011;13135;55.166;61.286;2023-02-01T11:22:08;30.03;;;16.07;;
25175;SDS011;13135;55.166;61.286;2023-02-01T11:24:51;34.20;;;16.60;;
25175;SDS011;13135;55.166;61.286;2023-02-01T11:27:36;37.93;;;16.67;;
25175;SDS011;13135;55.166;61.286;2023-02-01T11:30:29;41.03;;;19.37;;
25175;SDS011;13135;55.166;61.286;2023-02-01T11:33:12;49.50;;;20.53;;
25175;SDS011;13135;55.166;61.286;2023-02-01T11:35:55;47.07;;;22.20;;
25175;SDS011;13135;55.166;61.286;2023-02-01T11:38:39;57.93;;;23.97;;
25175;SDS011;13135;55.166;61.286;2023-02-01T11:41:25;56.13;;;25.00;;
25175;SDS011;13135;55.166;61.286;2023-02-01T11:44:15;58.37;;;24.67;;
25175;SDS011;13135;55.166;61.286;2023-02-01T11:46:48;50.30;;;23.03;;
25175;SDS011;13135;55.166;61.286;2023-02-01T11:49:32;52.73;;;23.70;;
25175;SDS011;13135;55.166;61.286;2023-02-01T11:52:39;50.63;;;22.40;;
25175;SDS011;13135;55.166;61.286;2023-02-01T11:58:33;49.63;;;21.40;;
25175;SDS011;13135;55.166;61.286;2023-02-01T12:01:36;51.80;;;21.87;;
25175;SDS011;13135;55.166;61.286;2023-02-01T12:07:13;50.70;;;23.30;;
25175;SDS011;13135;55.166;61.286;2023-02-01T12:10:05;55.53;;;23.23;;
25175;SDS011;13135;55.166;61.286;2023-02-01T12:12:58;49.43;;;22.10;;
25175;SDS011;13135;55.166;61.286;2023-02-01T12:16:00;55.80;;;23.37;;
25175;SDS011;13135;55.166;61.286;2023-02-01T12:22:10;50.00;;;22.17;;
25175;SDS011;13135;55.166;61.286;2023-02-01T12:25:09;54.43;;;22.80;;
25175;SDS011;13135;55.166;61.286;2023-02-01T12:27:59;49.73;;;21.53;;
25175;SDS011;13135;55.166;61.286;2023-02-01T12:30:54;49.80;;;21.50;;
25175;SDS011;13135;55.166;61.286;2023-02-01T12:33:39;59.10;;;24.60;;
25175;SDS011;13135;55.166;61.286;2023-02-01T12:39:31;51.87;;;22.77;;
25175;SDS011;13135;55.166;61.286;2023-02-01T12:42:15;56.27;;;22.63;;
25175;SDS011;13135;55.166;61.286;2023-02-01T12:45:01;50.87;;;22.33;;
25175;SDS011;13135;55.166;61.286;2023-02-01T12:48:16;47.20;;;20.93;;
25175;SDS011;13135;55.166;61.286;2023-02-01T12:51:01;54.07;;;23.50;;
25175;SDS011;13135;55.166;61.286;2023-02-01T12:53:52;48.27;;;22.10;;
25175;SDS011;13135;55.166;61.286;2023-02-01T12:56:39;46.10;;;21.83;;
25175;SDS011;13135;55.166;61.286;2023-02-01T13:02:30;47.27;;;22.33;;
25175;SDS011;13135;55.166;61.286;2023-02-01T13:05:22;61.37;;;21.43;;
25175;SDS011;13135;55.166;61.286;2023-02-01T13:08:05;52.57;;;21.47;;
25175;SDS011;13135;55.166;61.286;2023-02-01T13:10:51;42.33;;;20.30;;
25175;SDS011;13135;55.166;61.286;2023-02-01T13:16:42;48.87;;;20.70;;
25175;SDS011;13135;55.166;61.286;2023-02-01T13:19:52;50.63;;;20.07;;
25175;SDS011;13135;55.166;61.286;2023-02-01T13:22:39;49.73;;;19.67;;
25175;SDS011;13135;55.166;61.286;2023-02-01T13:25:28;43.20;;;19.73;;
25175;SDS011;13135;55.166;61.286;2023-02-01T13:28:20;44.77;;;19.93;;
25175;SDS011;13135;55.166;61.286;2023-02-01T13:31:08;36.50;;;18.57;;
25175;SDS011;13135;55.166;61.286;2023-02-01T13:33:52;45.07;;;20.97;;
25175;SDS011;13135;55.166;61.286;2023-02-01T13:36:41;43.43;;;20.43;;
25175;SDS011;13135;55.166;61.286;2023-02-01T13:39:47;50.17;;;19.57;;
25175;SDS011;13135;55.166;61.286;2023-02-01T13:42:29;36.73;;;18.77;;
25175;SDS011;13135;55.166;61.286;2023-02-01T13:45:14;43.60;;;20.60;;
25175;SDS011;13135;55.166;61.286;2023-02-01T13:48:00;43.53;;;20.87;;
25175;SDS011;13135;55.166;61.286;2023-02-01T13:50:42;39.73;;;18.97;;
25175;SDS011;13135;55.166;61.286;2023-02-01T13:53:28;48.83;;;20.20;;
25175;SDS011;13135;55.166;61.286;2023-02-01T13:56:12;41.27;;;19.40;;
25175;SDS011;13135;55.166;61.286;2023-02-01T13:58:57;47.53;;;22.07;;
25175;SDS011;13135;55.166;61.286;2023-02-01T14:01:42;49.70;;;21.40;;
25175;SDS011;13135;55.166;61.286;2023-02-01T14:07:23;59.17;;;21.83;;
25175;SDS011;13135;55.166;61.286;2023-02-01T14:13:30;50.13;;;19.80;;
25175;SDS011;13135;55.166;61.286;2023-02-01T14:16:16;47.20;;;19.07;;
25175;SDS011;13135;55.166;61.286;2023-02-01T14:19:03;50.03;;;20.33;;
25175;SDS011;13135;55.166;61.286;2023-02-01T14:21:50;46.97;;;20.70;;
25175;SDS011;13135;55.166;61.286;2023-02-01T14:24:35;47.17;;;19.63;;
25175;SDS011;13135;55.166;61.286;2023-02-01T14:27:21;55.20;;;21.20;;
25175;SDS011;13135;55.166;61.286;2023-02-01T14:30:06;85.70;;;35.40;;
25175;SDS011;13135;55.166;61.286;2023-02-01T14:32:51;55.87;;;20.70;;
25175;SDS011;13135;55.166;61.286;2023-02-01T14:35:35;47.07;;;20.97;;
25175;SDS011;13135;55.166;61.286;2023-02-01T14:38:19;43.67;;;17.63;;
25175;SDS011;13135;55.166;61.286;2023-02-01T14:44:14;53.27;;;20.90;;
25175;SDS011;13135;55.166;61.286;2023-02-01T14:47:03;37.43;;;18.37;;
25175;SDS011;13135;55.166;61.286;2023-02-01T14:49:49;43.03;;;17.27;;
25175;SDS011;13135;55.166;61.286;2023-02-01T14:52:40;42.50;;;17.93;;
25175;SDS011;13135;55.166;61.286;2023-02-01T14:55:25;39.60;;;15.67;;
25175;SDS011;13135;55.166;61.286;2023-02-01T14:58:19;47.03;;;16.50;;
25175;SDS011;13135;55.166;61.286;2023-02-01T15:01:21;36.00;;;15.53;;
25175;SDS011;13135;55.166;61.286;2023-02-01T15:04:02;38.57;;;16.67;;
25175;SDS011;13135;55.166;61.286;2023-02-01T15:06:57;42.23;;;15.67;;
25175;SDS011;13135;55.166;61.286;2023-02-01T15:09:44;32.83;;;15.90;;
25175;SDS011;13135;55.166;61.286;2023-02-01T15:12:28;35.90;;;15.90;;
25175;SDS011;13135;55.166;61.286;2023-02-01T15:15:14;37.20;;;16.27;;
25175;SDS011;13135;55.166;61.286;2023-02-01T15:17:58;35.77;;;17.27;;
25175;SDS011;13135;55.166;61.286;2023-02-01T15:20:42;41.53;;;17.17;;
25175;SDS011;13135;55.166;61.286;2023-02-01T15:23:28;41.60;;;15.13;;
25175;SDS011;13135;55.166;61.286;2023-02-01T15:26:23;33.57;;;16.17;;
25175;SDS011;13135;55.166;61.286;2023-02-01T15:28:57;38.17;;;15.87;;
25175;SDS011;13135;55.166;61.286;2023-02-01T15:31:45;40.97;;;17.37;;
25175;SDS011;13135;55.166;61.286;2023-02-01T15:37:28;41.47;;;18.30;;
25175;SDS011;13135;55.166;61.286;2023-02-01T15:40:19;38.87;;;17.47;;
25175;SDS011;13135;55.166;61.286;2023-02-01T15:43:04;46.47;;;19.47;;
25175;SDS011;13135;55.166;61.286;2023-02-01T15:45:49;46.87;;;19.30;;
25175;SDS011;13135;55.166;61.286;2023-02-01T15:48:43;42.27;;;19.03;;
25175;SDS011;13135;55.166;61.286;2023-02-01T15:51:29;42.97;;;19.50;;
25175;SDS011;13135;55.166;61.286;2023-02-01T15:54:13;48.30;;;21.03;;
25175;SDS011;13135;55.166;61.286;2023-02-01T15:56:58;49.53;;;20.63;;
25175;SDS011;13135;55.166;61.286;2023-02-01T15:59:43;64.17;;;23.97;;
25175;SDS011;13135;55.166;61.286;2023-02-01T16:02:32;64.43;;;28.63;;
25175;SDS011;13135;55.166;61.286;2023-02-01T16:05:33;62.87;;;27.10;;
25175;SDS011;13135;55.166;61.286;2023-02-01T16:08:21;53.43;;;21.67;;
25175;SDS011;13135;55.166;61.286;2023-02-01T16:11:20;53.57;;;21.00;;
25175;SDS011;13135;55.166;61.286;2023-02-01T16:14:07;51.90;;;20.97;;
25175;SDS011;13135;55.166;61.286;2023-02-01T16:16:52;45.33;;;20.03;;
25175;SDS011;13135;55.166;61.286;2023-02-01T16:19:37;57.07;;;22.10;;
25175;SDS011;13135;55.166;61.286;2023-02-01T16:22:21;46.73;;;20.23;;
25175;SDS011;13135;55.166;61.286;2023-02-01T16:25:07;57.13;;;20.60;;
25175;SDS011;13135;55.166;61.286;2023-02-01T16:27:52;48.70;;;21.80;;
25175;SDS011;13135;55.166;61.286;2023-02-01T16:30:37;50.20;;;20.27;;
25175;SDS011;13135;55.166;61.286;2023-02-01T16:33:22;58.20;;;23.20;;
25175;SDS011;13135;55.166;61.286;2023-02-01T16:36:14;58.27;;;24.63;;
25175;SDS011;13135;55.166;61.286;2023-02-01T16:39:04;54.73;;;21.90;;
25175;SDS011;13135;55.166;61.286;2023-02-01T16:41:52;50.83;;;20.40;;
25175;SDS011;13135;55.166;61.286;2023-02-01T16:44:41;191.53;;;73.10;;
25175;SDS011;13135;55.166;61.286;2023-02-01T16:47:25;133.93;;;46.30;;
25175;SDS011;13135;55.166;61.286;2023-02-01T16:50:18;166.57;;;62.40;;
25175;SDS011;13135;55.166;61.286;2023-02-01T16:53:05;69.07;;;26.77;;
25175;SDS011;13135;55.166;61.286;2023-02-01T16:55:50;93.83;;;38.70;;
25175;SDS011;13135;55.166;61.286;2023-02-01T16:58:32;68.97;;;29.53;;